createdAt,value
2019-04-26T00:00:42.191Z,21.70
2019-04-26T00:03:39.645Z,21.70
2019-04-26T00:06:31.320Z,21.60
2019-04-26T00:09:32.985Z,21.60
2019-04-26T00:12:31.196Z,21.60
2019-04-26T00:15:37.283Z,21.60
2019-04-26T00:18:27.608Z,21.60
2019-04-26T00:21:19.140Z,21.60
2019-04-26T00:24:11.643Z,21.50
2019-04-26T00:27:02.332Z,21.60
2019-04-26T00:29:52.841Z,21.50
2019-04-26T00:32:44.187Z,21.50
2019-04-26T00:35:46.932Z,21.50
2019-04-26T00:38:27.551Z,21.50
2019-04-26T00:41:20.559Z,21.40
2019-04-26T00:44:12.250Z,21.40
2019-04-26T00:47:06.089Z,21.40
2019-04-26T00:49:57.701Z,21.30
2019-04-26T00:52:49.208Z,21.30
2019-04-26T00:55:40.663Z,21.30
2019-04-26T00:58:33.639Z,21.20
2019-04-26T01:01:26.114Z,21.20
2019-04-26T01:04:17.514Z,21.20
2019-04-26T01:07:08.443Z,21.10
2019-04-26T01:09:59.789Z,21.10
2019-04-26T01:12:51.203Z,21.10
2019-04-26T01:15:42.756Z,21.10
2019-04-26T01:18:34.834Z,21.00
2019-04-26T01:21:32.261Z,20.90
2019-04-26T01:24:25.420Z,20.90
2019-04-26T01:27:19.609Z,20.80
2019-04-26T01:30:14.555Z,20.80
2019-04-26T01:33:06.429Z,20.70
2019-04-26T01:35:57.875Z,20.70
2019-04-26T01:38:51.849Z,20.60
2019-04-26T01:41:47.377Z,20.60
2019-04-26T01:44:51.217Z,20.50
2019-04-26T01:47:42.587Z,20.50
2019-04-26T01:50:36.013Z,20.40
2019-04-26T01:53:26.655Z,20.40
2019-04-26T01:56:21.826Z,20.30
2019-04-26T01:59:16.728Z,20.30
2019-04-26T02:02:27.770Z,20.20
2019-04-26T02:05:23.979Z,20.20
2019-04-26T02:08:14.232Z,20.10
2019-04-26T02:11:04.715Z,20.10
2019-04-26T02:13:55.037Z,20.00
2019-04-26T02:16:46.145Z,20.00
2019-04-26T02:19:36.665Z,19.90
2019-04-26T02:22:38.450Z,19.90
2019-04-26T02:25:28.892Z,19.90
2019-04-26T02:28:20.490Z,19.80
2019-04-26T02:31:11.976Z,19.80
2019-04-26T02:34:04.853Z,19.70
2019-04-26T02:36:59.368Z,19.70
2019-04-26T02:39:50.045Z,19.70
2019-04-26T02:42:43.978Z,19.70
2019-04-26T02:46:08.490Z,19.70
2019-04-26T02:49:27.360Z,19.60
2019-04-26T02:53:04.333Z,19.60
2019-04-26T02:56:21.954Z,19.60
2019-04-26T02:59:38.776Z,19.50
2019-04-26T03:02:32.285Z,19.50
2019-04-26T03:05:22.026Z,19.50
2019-04-26T03:08:21.369Z,19.40
2019-04-26T03:11:21.302Z,19.40
2019-04-26T03:14:45.593Z,19.40
2019-04-26T03:18:00.900Z,19.40
2019-04-26T03:21:00.370Z,19.40
2019-04-26T03:24:15.274Z,19.40
2019-04-26T03:27:32.688Z,19.30
2019-04-26T03:30:53.961Z,19.30
2019-04-26T03:34:17.548Z,19.30
2019-04-26T03:38:01.679Z,19.20
2019-04-26T03:41:24.452Z,19.10
2019-04-26T03:44:29.446Z,19.10
2019-04-26T03:47:26.107Z,19.00
2019-04-26T03:50:31.285Z,19.00
2019-04-26T03:53:54.151Z,19.00
2019-04-26T03:57:19.102Z,18.90
2019-04-26T04:00:22.602Z,18.90
2019-04-26T04:03:29.420Z,18.90
2019-04-26T04:06:28.157Z,18.80
2019-04-26T04:09:20.685Z,18.80
2019-04-26T04:12:27.856Z,18.80
2019-04-26T04:15:29.812Z,18.80
2019-04-26T04:18:25.155Z,18.80
2019-04-26T04:21:32.203Z,18.80
2019-04-26T04:24:52.616Z,18.80
2019-04-26T04:28:03.428Z,18.80
2019-04-26T04:31:13.959Z,18.80
2019-04-26T04:34:32.328Z,18.80
2019-04-26T04:37:28.834Z,18.80
2019-04-26T04:40:48.997Z,18.80
2019-04-26T04:43:50.967Z,18.80
2019-04-26T04:47:31.064Z,18.80
2019-04-26T04:50:46.598Z,18.80
2019-04-26T04:53:51.673Z,18.90
2019-04-26T04:57:07.544Z,18.90
2019-04-26T05:00:47.148Z,19.00
2019-04-26T05:04:20.108Z,19.10
2019-04-26T05:07:34.215Z,19.30
2019-04-26T05:10:46.332Z,19.70
2019-04-26T05:14:00.836Z,20.20
2019-04-26T05:17:21.083Z,20.70
2019-04-26T05:20:44.448Z,21.20
2019-04-26T05:24:09.950Z,21.80
2019-04-26T05:27:43.228Z,22.50
2019-04-26T05:31:09.021Z,23.10
2019-04-26T05:34:57.031Z,23.80
2019-04-26T05:38:42.823Z,24.30
2019-04-26T05:42:29.608Z,24.90
2019-04-26T05:46:02.354Z,25.50
2019-04-26T05:49:46.823Z,26.00
2019-04-26T05:53:27.224Z,26.50
2019-04-26T05:56:43.353Z,27.20
2019-04-26T06:00:28.066Z,27.80
2019-04-26T06:04:23.638Z,28.50
2019-04-26T06:08:03.018Z,29.20
2019-04-26T06:11:02.685Z,30.00
2019-04-26T06:14:43.804Z,30.70
2019-04-26T06:18:09.430Z,31.30
2019-04-26T06:21:29.141Z,32.00
2019-04-26T06:25:26.283Z,32.70
2019-04-26T06:28:35.945Z,33.30
2019-04-26T06:31:40.618Z,33.90
2019-04-26T06:34:55.248Z,34.40
2019-04-26T06:38:27.901Z,34.80
2019-04-26T06:42:11.287Z,35.30
2019-04-26T06:46:08.089Z,35.90
2019-04-26T06:49:49.218Z,36.30
2019-04-26T06:53:11.180Z,36.70
2019-04-26T06:56:40.764Z,37.00
2019-04-26T07:00:24.289Z,37.30
2019-04-26T07:03:40.547Z,37.60
2019-04-26T07:06:39.956Z,38.10
2019-04-26T07:09:40.005Z,38.50
2019-04-26T07:12:40.383Z,38.90
2019-04-26T07:15:50.115Z,39.20
2019-04-26T07:19:54.252Z,39.40
2019-04-26T07:23:55.981Z,39.70
2019-04-26T07:27:17.592Z,40.00
2019-04-26T07:30:42.711Z,40.20
2019-04-26T07:34:15.540Z,40.40
2019-04-26T07:38:16.674Z,40.70
2019-04-26T07:42:09.496Z,40.90
2019-04-26T07:45:48.482Z,41.20
2019-04-26T07:50:07.383Z,41.50
2019-04-26T07:53:47.944Z,41.80
2019-04-26T07:57:13.956Z,41.80
2019-04-26T08:00:26.923Z,41.90
2019-04-26T08:03:32.095Z,42.00
2019-04-26T08:06:55.938Z,42.10
2019-04-26T08:10:14.941Z,42.30
2019-04-26T08:13:13.076Z,42.60
2019-04-26T08:16:20.059Z,42.90
2019-04-26T08:19:18.151Z,43.10
2019-04-26T08:22:20.460Z,43.40
2019-04-26T08:25:06.692Z,43.70
2019-04-26T08:28:00.538Z,43.90
2019-04-26T08:30:54.925Z,44.20
2019-04-26T08:33:50.686Z,44.40
2019-04-26T08:36:51.549Z,44.70
2019-04-26T08:39:45.118Z,45.00
2019-04-26T08:42:43.484Z,45.30
2019-04-26T08:46:01.723Z,45.50
2019-04-26T08:49:09.633Z,45.80
2019-04-26T08:52:13.928Z,46.10
2019-04-26T08:54:57.531Z,46.30
2019-04-26T08:57:52.140Z,46.40
2019-04-26T09:00:53.113Z,46.30
2019-04-26T09:03:53.023Z,46.40
2019-04-26T09:06:53.640Z,46.60
2019-04-26T09:09:57.213Z,46.70
2019-04-26T09:12:42.862Z,46.70
2019-04-26T09:16:04.581Z,46.70
2019-04-26T09:18:59.449Z,46.60
2019-04-26T09:21:53.701Z,46.50
2019-04-26T09:24:59.455Z,46.50
2019-04-26T09:27:51.512Z,46.50
2019-04-26T09:30:59.087Z,46.30
2019-04-26T09:33:58.790Z,46.00
2019-04-26T09:36:49.296Z,45.50
2019-04-26T09:39:41.975Z,45.10
2019-04-26T09:42:45.428Z,44.90
2019-04-26T09:46:08.312Z,44.80
2019-04-26T09:49:07.014Z,44.80
2019-04-26T09:51:56.149Z,44.90
2019-04-26T09:54:47.412Z,45.00
2019-04-26T09:57:37.826Z,45.10
2019-04-26T10:00:30.216Z,45.40
2019-04-26T10:03:22.160Z,45.60
2019-04-26T10:06:13.231Z,45.90
2019-04-26T10:09:05.527Z,46.10
2019-04-26T10:12:03.210Z,46.20
2019-04-26T10:15:04.713Z,46.10
2019-04-26T10:17:55.491Z,45.90
2019-04-26T10:20:46.700Z,45.70
2019-04-26T10:23:39.108Z,45.40
2019-04-26T10:26:30.094Z,45.10
2019-04-26T10:29:21.691Z,44.90
2019-04-26T10:32:14.801Z,44.70
2019-04-26T10:35:05.743Z,44.60
2019-04-26T10:37:57.154Z,44.70
2019-04-26T10:40:48.255Z,44.70
2019-04-26T10:43:39.371Z,44.70
2019-04-26T10:46:30.745Z,44.80
2019-04-26T10:49:46.870Z,44.80
2019-04-26T10:52:45.703Z,44.70
2019-04-26T10:56:03.952Z,44.40
2019-04-26T10:59:31.784Z,44.20
2019-04-26T11:02:24.237Z,43.90
2019-04-26T11:05:18.549Z,43.60
2019-04-26T11:08:08.610Z,43.40
2019-04-26T11:10:59.873Z,43.20
2019-04-26T11:13:51.385Z,43.00
2019-04-26T11:16:43.432Z,42.70
2019-04-26T11:19:35.509Z,42.30
2019-04-26T11:22:29.366Z,41.90
2019-04-26T11:25:18.502Z,41.40
2019-04-26T11:28:09.640Z,41.00
2019-04-26T11:31:00.944Z,40.50
2019-04-26T11:34:04.433Z,40.00
2019-04-26T11:36:44.757Z,39.50
2019-04-26T11:39:36.489Z,39.00
2019-04-26T11:42:28.095Z,38.50
2019-04-26T11:45:19.442Z,38.00
2019-04-26T11:48:10.999Z,37.50
2019-04-26T11:51:02.366Z,37.10
2019-04-26T11:53:52.798Z,36.70
2019-04-26T11:56:44.142Z,36.30
2019-04-26T11:59:35.467Z,36.00
2019-04-26T12:02:25.875Z,35.60
2019-04-26T12:05:35.372Z,35.30
2019-04-26T12:08:31.243Z,34.90
2019-04-26T12:11:31.344Z,34.70
2019-04-26T12:14:20.501Z,34.50
2019-04-26T12:17:06.605Z,34.30
2019-04-26T12:19:57.239Z,34.10
2019-04-26T12:22:47.806Z,33.90
2019-04-26T12:25:38.783Z,33.70
2019-04-26T12:28:30.049Z,33.50
2019-04-26T12:31:21.435Z,33.20
2019-04-26T12:34:14.136Z,33.00
2019-04-26T12:37:04.623Z,32.80
2019-04-26T12:39:55.820Z,32.60
2019-04-26T12:42:47.276Z,32.40
2019-04-26T12:45:52.618Z,32.20
2019-04-26T12:48:45.985Z,32.10
2019-04-26T12:51:35.146Z,32.00
2019-04-26T12:54:26.576Z,31.80
2019-04-26T12:57:18.264Z,31.70
2019-04-26T13:00:11.726Z,31.60
2019-04-26T13:03:04.645Z,31.50
2019-04-26T13:05:57.927Z,31.40
2019-04-26T13:08:51.526Z,31.30
2019-04-26T13:12:03.312Z,31.20
2019-04-26T13:15:13.130Z,31.10
2019-04-26T13:18:07.340Z,30.90
2019-04-26T13:20:58.491Z,30.80
2019-04-26T13:23:50.040Z,30.60
2019-04-26T13:26:40.938Z,30.50
2019-04-26T13:29:32.163Z,30.50
2019-04-26T13:32:23.296Z,30.40
2019-04-26T13:35:15.086Z,30.40
2019-04-26T13:38:08.737Z,30.30
2019-04-26T13:40:59.805Z,30.30
2019-04-26T13:43:49.939Z,30.20
2019-04-26T13:47:07.950Z,30.20
2019-04-26T13:50:03.199Z,30.10
2019-04-26T13:52:54.448Z,30.10
2019-04-26T13:55:44.975Z,30.10
2019-04-26T13:58:35.733Z,30.10
2019-04-26T14:01:25.937Z,30.10
2019-04-26T14:04:16.766Z,30.10
2019-04-26T14:07:07.974Z,30.00
2019-04-26T14:09:58.992Z,30.00
2019-04-26T14:12:50.008Z,29.90
2019-04-26T14:15:44.020Z,29.90
2019-04-26T14:18:34.514Z,29.80
2019-04-26T14:21:25.388Z,29.70
2019-04-26T14:24:24.037Z,29.60
2019-04-26T14:27:22.081Z,29.50
2019-04-26T14:30:12.874Z,29.30
2019-04-26T14:33:03.537Z,29.10
2019-04-26T14:35:54.564Z,29.00
2019-04-26T14:38:45.256Z,28.80
2019-04-26T14:41:37.159Z,28.60
2019-04-26T14:44:31.182Z,28.40
2019-04-26T14:47:21.215Z,28.30
2019-04-26T14:50:14.231Z,28.20
2019-04-26T14:53:05.219Z,28.00
2019-04-26T14:55:55.830Z,27.90
2019-04-26T14:58:47.449Z,27.80
2019-04-26T15:02:10.354Z,27.70
2019-04-26T15:05:09.706Z,27.50
2019-04-26T15:08:05.399Z,27.40
2019-04-26T15:10:57.639Z,27.30
2019-04-26T15:13:44.466Z,27.20
2019-04-26T15:16:34.866Z,27.20
2019-04-26T15:19:26.003Z,27.20
2019-04-26T15:22:18.502Z,27.10
2019-04-26T15:25:11.926Z,27.10
2019-04-26T15:28:02.431Z,27.10
2019-04-26T15:30:53.967Z,27.10
2019-04-26T15:33:48.645Z,27.20
2019-04-26T15:36:37.447Z,27.20
2019-04-26T15:39:42.387Z,27.30
2019-04-26T15:43:00.850Z,27.30
2019-04-26T15:45:52.769Z,27.40
2019-04-26T15:49:15.392Z,27.40
2019-04-26T15:52:05.708Z,27.40
2019-04-26T15:54:58.988Z,27.30
2019-04-26T15:57:48.126Z,27.10
2019-04-26T16:00:39.155Z,27.10
2019-04-26T16:03:29.622Z,27.00
2019-04-26T16:06:20.809Z,26.80
2019-04-26T16:09:13.894Z,26.70
2019-04-26T16:12:04.705Z,26.60
2019-04-26T16:14:56.605Z,26.40
2019-04-26T16:17:46.963Z,26.30
2019-04-26T16:20:42.182Z,26.20
2019-04-26T16:23:40.836Z,26.00
2019-04-26T16:26:22.883Z,25.90
2019-04-26T16:29:24.457Z,25.80
2019-04-26T16:32:47.431Z,25.60
2019-04-26T16:35:38.218Z,25.40
2019-04-26T16:38:38.210Z,25.20
2019-04-26T16:41:35.528Z,24.90
2019-04-26T16:44:28.024Z,24.70
2019-04-26T16:47:13.436Z,24.50
2019-04-26T16:50:04.878Z,24.30
2019-04-26T16:52:55.254Z,24.00
2019-04-26T16:55:52.153Z,23.80
2019-04-26T16:58:44.912Z,23.60
2019-04-26T17:01:32.988Z,23.40
2019-04-26T17:04:29.081Z,23.20
2019-04-26T17:07:22.038Z,22.90
2019-04-26T17:10:08.666Z,22.70
2019-04-26T17:12:59.718Z,22.50
2019-04-26T17:15:52.054Z,22.30
2019-04-26T17:18:42.986Z,22.20
2019-04-26T17:21:40.002Z,21.90
2019-04-26T17:25:02.561Z,21.80
2019-04-26T17:27:54.118Z,21.70
2019-04-26T17:30:45.615Z,21.50
2019-04-26T17:33:37.030Z,21.40
2019-04-26T17:36:27.515Z,21.30
2019-04-26T17:39:18.465Z,21.30
2019-04-26T17:42:10.504Z,21.20
2019-04-26T17:45:03.981Z,21.10
2019-04-26T17:47:53.657Z,21.00
2019-04-26T17:50:43.951Z,20.90
2019-04-26T17:53:35.080Z,20.80
2019-04-26T17:56:31.509Z,20.80
2019-04-26T17:59:31.398Z,20.70
2019-04-26T18:02:24.261Z,20.70
2019-04-26T18:05:03.826Z,20.60
2019-04-26T18:07:59.413Z,20.60
2019-04-26T18:10:48.340Z,20.50
2019-04-26T18:13:39.451Z,20.50
2019-04-26T18:16:29.872Z,20.50
2019-04-26T18:19:49.355Z,20.40
2019-04-26T18:22:58.994Z,20.40
2019-04-26T18:25:50.685Z,20.40
2019-04-26T18:28:46.202Z,20.30
2019-04-26T18:31:33.726Z,20.30
2019-04-26T18:34:25.070Z,20.30
2019-04-26T18:37:15.471Z,20.20
2019-04-26T18:40:06.192Z,20.10
2019-04-26T18:42:58.532Z,20.10
2019-04-26T18:45:51.290Z,20.10
2019-04-26T18:48:42.541Z,20.10
2019-04-26T18:51:34.054Z,20.00
2019-04-26T18:54:51.267Z,19.90
2019-04-26T18:57:43.033Z,19.80
2019-04-26T19:00:39.379Z,19.60
2019-04-26T19:03:31.021Z,19.40
2019-04-26T19:06:31.020Z,19.20
2019-04-26T19:09:16.130Z,19.00
2019-04-26T19:12:07.944Z,18.80
2019-04-26T19:15:33.640Z,18.60
2019-04-26T19:18:37.940Z,18.40
2019-04-26T19:21:40.619Z,18.20
2019-04-26T19:24:31.672Z,18.10
2019-04-26T19:27:26.559Z,17.90
2019-04-26T19:30:16.128Z,17.80
2019-04-26T19:33:11.763Z,17.70
2019-04-26T19:36:00.637Z,17.50
2019-04-26T19:38:53.276Z,17.50
2019-04-26T19:41:44.701Z,17.40
2019-04-26T19:44:35.129Z,17.30
2019-04-26T19:47:56.854Z,17.20
2019-04-26T19:50:55.171Z,17.10
2019-04-26T19:53:54.152Z,17.00
2019-04-26T19:57:05.784Z,17.00
2019-04-26T19:59:56.743Z,16.90
2019-04-26T20:02:48.012Z,16.90
2019-04-26T20:05:40.606Z,16.80
2019-04-26T20:08:35.340Z,16.70
2019-04-26T20:11:23.957Z,16.70
2019-04-26T20:14:15.411Z,16.60
2019-04-26T20:17:06.518Z,16.60
2019-04-26T20:19:58.065Z,16.50
2019-04-26T20:22:49.051Z,16.40
2019-04-26T20:25:39.790Z,16.40
2019-04-26T20:28:35.890Z,16.40
2019-04-26T20:31:44.926Z,16.40
2019-04-26T20:34:32.070Z,16.40
2019-04-26T20:37:25.608Z,16.40
2019-04-26T20:40:22.247Z,16.40
2019-04-26T20:43:20.971Z,16.40
2019-04-26T20:46:13.784Z,16.40
2019-04-26T20:48:53.546Z,16.50
2019-04-26T20:51:46.345Z,16.50
2019-04-26T20:54:36.536Z,16.50
2019-04-26T20:57:31.351Z,16.60
2019-04-26T21:00:22.504Z,16.50
2019-04-26T21:03:22.772Z,16.50
2019-04-26T21:06:05.828Z,16.50
2019-04-26T21:08:59.104Z,16.50
2019-04-26T21:11:48.307Z,16.50
2019-04-26T21:14:44.463Z,16.50
2019-04-26T21:17:32.317Z,16.50
2019-04-26T21:20:27.808Z,16.50
2019-04-26T21:23:15.606Z,16.40
2019-04-26T21:26:37.314Z,16.40
2019-04-26T21:29:53.439Z,16.40
2019-04-26T21:33:05.238Z,16.40
2019-04-26T21:36:04.711Z,16.40
2019-04-26T21:39:04.108Z,16.40
2019-04-26T21:41:54.646Z,16.30
2019-04-26T21:44:51.591Z,16.30
2019-04-26T21:47:38.105Z,16.30
2019-04-26T21:50:29.092Z,16.40
2019-04-26T21:53:21.140Z,16.30
2019-04-26T21:56:12.538Z,16.30
2019-04-26T21:59:04.494Z,16.30
2019-04-26T22:01:59.266Z,16.30
2019-04-26T22:04:48.262Z,16.30
2019-04-26T22:07:39.513Z,16.30
2019-04-26T22:10:39.592Z,16.30
2019-04-26T22:13:47.677Z,16.30
2019-04-26T22:16:47.638Z,16.20
2019-04-26T22:20:07.006Z,16.20
2019-04-26T22:23:21.318Z,16.10
2019-04-26T22:26:10.790Z,16.10
2019-04-26T22:29:03.722Z,16.10
2019-04-26T22:31:55.242Z,16.10
2019-04-26T22:34:46.386Z,16.10
2019-04-26T22:37:41.411Z,16.00
2019-04-26T22:40:30.410Z,16.10
2019-04-26T22:43:44.154Z,16.00
2019-04-26T22:46:58.893Z,16.00
2019-04-26T22:49:50.847Z,16.10
2019-04-26T22:52:44.988Z,16.00
2019-04-26T22:55:33.986Z,16.00
2019-04-26T22:58:28.592Z,16.00
2019-04-26T23:01:17.618Z,16.00
2019-04-26T23:04:09.345Z,16.00
2019-04-26T23:07:00.732Z,16.00
2019-04-26T23:09:55.221Z,16.00
2019-04-26T23:13:07.575Z,16.00
2019-04-26T23:16:33.608Z,16.00
2019-04-26T23:19:49.481Z,16.00
2019-04-26T23:22:38.101Z,16.00
2019-04-26T23:25:31.218Z,16.00
2019-04-26T23:28:20.647Z,16.00
2019-04-26T23:31:11.185Z,16.00
2019-04-26T23:34:02.964Z,16.00
2019-04-26T23:36:54.107Z,15.90
2019-04-26T23:39:49.811Z,15.90
2019-04-26T23:42:37.130Z,16.00
2019-04-26T23:45:27.296Z,15.90
2019-04-26T23:48:17.565Z,15.90
2019-04-26T23:51:08.472Z,15.90
2019-04-26T23:54:00.039Z,15.90
2019-04-26T23:56:50.161Z,15.80
2019-04-26T23:59:43.122Z,15.80
